sensor_id;sensor_type;location;lat;lon;timestamp;temperature;humidity
27376;DHT22;14844;51.302;6.354;2023-04-24T00:00:01;10.40;99.90
27376;DHT22;14844;51.302;6.354;2023-04-24T00:02:26;10.40;99.90
27376;DHT22;14844;51.302;6.354;2023-04-24T00:04:52;10.40;99.90
27376;DHT22;14844;51.302;6.354;2023-04-24T00:07:17;10.30;99.90
27376;DHT22;14844;51.302;6.354;2023-04-24T00:09:43;10.20;99.90
27376;DHT22;14844;51.302;6.354;2023-04-24T00:12:09;10.10;99.90
27376;DHT22;14844;51.302;6.354;2023-04-24T00:14:34;10.00;99.90
27376;DHT22;14844;51.302;6.354;2023-04-24T00:17:00;9.90;99.90
27376;DHT22;14844;51.302;6.354;2023-04-24T00:19:27;9.90;99.90
27376;DHT22;14844;51.302;6.354;2023-04-24T00:21:53;9.90;99.90
27376;DHT22;14844;51.302;6.354;2023-04-24T00:24:19;9.90;99.90
27376;DHT22;14844;51.302;6.354;2023-04-24T00:26:45;9.90;99.90
27376;DHT22;14844;51.302;6.354;2023-04-24T00:29:10;9.90;99.90
27376;DHT22;14844;51.302;6.354;2023-04-24T00:31:36;9.90;99.90
27376;DHT22;14844;51.302;6.354;2023-04-24T00:34:01;9.90;99.90
27376;DHT22;14844;51.302;6.354;2023-04-24T00:36:27;9.90;99.90
27376;DHT22;14844;51.302;6.354;2023-04-24T00:38:53;9.90;99.90
27376;DHT22;14844;51.302;6.354;2023-04-24T00:41:19;9.90;99.90
27376;DHT22;14844;51.302;6.354;2023-04-24T00:43:44;9.80;99.90
27376;DHT22;14844;51.302;6.354;2023-04-24T00:46:11;9.80;99.90
27376;DHT22;14844;51.302;6.354;2023-04-24T00:48:37;9.80;99.90
27376;DHT22;14844;51.302;6.354;2023-04-24T00:51:03;9.80;99.90
27376;DHT22;14844;51.302;6.354;2023-04-24T00:53:29;9.70;99.90
27376;DHT22;14844;51.302;6.354;2023-04-24T00:55:54;9.70;99.90
27376;DHT22;14844;51.302;6.354;2023-04-24T00:58:20;9.70;99.90
27376;DHT22;14844;51.302;6.354;2023-04-24T01:00:46;9.70;99.90
27376;DHT22;14844;51.302;6.354;2023-04-24T01:03:12;9.70;99.90
27376;DHT22;14844;51.302;6.354;2023-04-24T01:05:38;9.70;99.90
27376;DHT22;14844;51.302;6.354;2023-04-24T01:08:03;9.70;99.90
27376;DHT22;14844;51.302;6.354;2023-04-24T01:10:29;9.70;99.90
27376;DHT22;14844;51.302;6.354;2023-04-24T01:12:56;9.70;99.90
27376;DHT22;14844;51.302;6.354;2023-04-24T01:15:21;9.70;99.90
27376;DHT22;14844;51.302;6.354;2023-04-24T01:17:47;9.70;99.90
27376;DHT22;14844;51.302;6.354;2023-04-24T01:20:12;9.70;99.90
27376;DHT22;14844;51.302;6.354;2023-04-24T01:22:38;9.70;99.90
27376;DHT22;14844;51.302;6.354;2023-04-24T01:25:04;9.70;99.90
27376;DHT22;14844;51.302;6.354;2023-04-24T01:27:30;9.70;99.90
27376;DHT22;14844;51.302;6.354;2023-04-24T01:29:55;9.60;99.90
27376;DHT22;14844;51.302;6.354;2023-04-24T01:32:21;9.60;99.90
27376;DHT22;14844;51.302;6.354;2023-04-24T01:34:47;9.70;99.90
27376;DHT22;14844;51.302;6.354;2023-04-24T01:37:13;9.60;99.90
27376;DHT22;14844;51.302;6.354;2023-04-24T01:39:38;9.60;99.90
27376;DHT22;14844;51.302;6.354;2023-04-24T01:42:04;9.60;99.90
27376;DHT22;14844;51.302;6.354;2023-04-24T01:44:30;9.60;99.90
27376;DHT22;14844;51.302;6.354;2023-04-24T01:46:56;9.60;99.90
27376;DHT22;14844;51.302;6.354;2023-04-24T01:49:21;9.60;99.90
27376;DHT22;14844;51.302;6.354;2023-04-24T01:51:47;9.60;99.90
27376;DHT22;14844;51.302;6.354;2023-04-24T01:54:12;9.60;99.90
27376;DHT22;14844;51.302;6.354;2023-04-24T01:56:41;9.60;99.90
27376;DHT22;14844;51.302;6.354;2023-04-24T01:59:08;9.50;99.90
27376;DHT22;14844;51.302;6.354;2023-04-24T02:01:34;9.50;99.90
27376;DHT22;14844;51.302;6.354;2023-04-24T02:04:01;9.50;99.90
27376;DHT22;14844;51.302;6.354;2023-04-24T02:06:27;9.50;99.90
27376;DHT22;14844;51.302;6.354;2023-04-24T02:08:52;9.50;99.90
27376;DHT22;14844;51.302;6.354;2023-04-24T02:11:18;9.50;99.90
27376;DHT22;14844;51.302;6.354;2023-04-24T02:13:44;9.50;99.90
27376;DHT22;14844;51.302;6.354;2023-04-24T02:16:09;9.50;99.90
27376;DHT22;14844;51.302;6.354;2023-04-24T02:18:34;9.50;99.90
27376;DHT22;14844;51.302;6.354;2023-04-24T02:21:00;9.50;99.90
27376;DHT22;14844;51.302;6.354;2023-04-24T02:23:25;9.50;99.90
27376;DHT22;14844;51.302;6.354;2023-04-24T02:25:52;9.50;99.90
27376;DHT22;14844;51.302;6.354;2023-04-24T02:28:18;9.50;99.90
27376;DHT22;14844;51.302;6.354;2023-04-24T02:30:44;9.50;99.90
27376;DHT22;14844;51.302;6.354;2023-04-24T02:33:11;9.50;99.90
27376;DHT22;14844;51.302;6.354;2023-04-24T02:35:36;9.50;99.90
27376;DHT22;14844;51.302;6.354;2023-04-24T02:38:02;9.50;99.90
27376;DHT22;14844;51.302;6.354;2023-04-24T02:40:28;9.50;99.90
27376;DHT22;14844;51.302;6.354;2023-04-24T02:42:54;9.50;99.90
27376;DHT22;14844;51.302;6.354;2023-04-24T02:45:19;9.50;99.90
27376;DHT22;14844;51.302;6.354;2023-04-24T02:47:45;9.50;99.90
27376;DHT22;14844;51.302;6.354;2023-04-24T02:50:10;9.50;99.90
27376;DHT22;14844;51.302;6.354;2023-04-24T02:52:35;9.50;99.90
27376;DHT22;14844;51.302;6.354;2023-04-24T02:55:01;9.50;99.90
27376;DHT22;14844;51.302;6.354;2023-04-24T02:57:26;9.50;99.90
27376;DHT22;14844;51.302;6.354;2023-04-24T02:59:52;9.50;99.90
27376;DHT22;14844;51.302;6.354;2023-04-24T03:02:17;9.50;99.90
27376;DHT22;14844;51.302;6.354;2023-04-24T03:04:43;9.50;99.90
27376;DHT22;14844;51.302;6.354;2023-04-24T03:07:08;9.50;99.90
27376;DHT22;14844;51.302;6.354;2023-04-24T03:09:34;9.50;99.90
27376;DHT22;14844;51.302;6.354;2023-04-24T03:11:59;9.50;99.90
27376;DHT22;14844;51.302;6.354;2023-04-24T03:14:25;9.50;99.90
27376;DHT22;14844;51.302;6.354;2023-04-24T03:16:51;9.50;99.90
27376;DHT22;14844;51.302;6.354;2023-04-24T03:19:16;9.50;99.90
27376;DHT22;14844;51.302;6.354;2023-04-24T03:21:42;9.50;99.90
27376;DHT22;14844;51.302;6.354;2023-04-24T03:24:10;9.50;99.90
27376;DHT22;14844;51.302;6.354;2023-04-24T03:26:35;9.50;99.90
27376;DHT22;14844;51.302;6.354;2023-04-24T03:29:01;9.50;99.90
27376;DHT22;14844;51.302;6.354;2023-04-24T03:31:26;9.50;99.90
27376;DHT22;14844;51.302;6.354;2023-04-24T03:33:52;9.50;99.90
27376;DHT22;14844;51.302;6.354;2023-04-24T03:36:17;9.50;99.90
27376;DHT22;14844;51.302;6.354;2023-04-24T03:38:44;9.60;99.90
27376;DHT22;14844;51.302;6.354;2023-04-24T03:41:10;9.50;99.90
27376;DHT22;14844;51.302;6.354;2023-04-24T03:43:35;9.50;99.90
27376;DHT22;14844;51.302;6.354;2023-04-24T03:46:01;9.50;99.90
27376;DHT22;14844;51.302;6.354;2023-04-24T03:48:26;9.50;99.90
27376;DHT22;14844;51.302;6.354;2023-04-24T03:50:52;9.50;99.90
27376;DHT22;14844;51.302;6.354;2023-04-24T03:53:17;9.50;99.90
27376;DHT22;14844;51.302;6.354;2023-04-24T03:55:43;9.50;99.90
27376;DHT22;14844;51.302;6.354;2023-04-24T03:58:08;9.50;99.90
27376;DHT22;14844;51.302;6.354;2023-04-24T04:00:34;9.40;99.90
27376;DHT22;14844;51.302;6.354;2023-04-24T04:02:59;9.40;99.90
27376;DHT22;14844;51.302;6.354;2023-04-24T04:05:25;9.40;99.90
27376;DHT22;14844;51.302;6.354;2023-04-24T04:07:50;9.40;99.90
27376;DHT22;14844;51.302;6.354;2023-04-24T04:10:16;9.40;99.90
27376;DHT22;14844;51.302;6.354;2023-04-24T04:12:42;9.40;99.90
27376;DHT22;14844;51.302;6.354;2023-04-24T04:15:08;9.40;99.90
27376;DHT22;14844;51.302;6.354;2023-04-24T04:17:33;9.40;99.90
27376;DHT22;14844;51.302;6.354;2023-04-24T04:19:59;9.40;99.90
27376;DHT22;14844;51.302;6.354;2023-04-24T04:22:25;9.40;99.90
27376;DHT22;14844;51.302;6.354;2023-04-24T04:24:50;9.40;99.90
27376;DHT22;14844;51.302;6.354;2023-04-24T04:27:16;9.40;99.90
27376;DHT22;14844;51.302;6.354;2023-04-24T04:29:44;9.40;99.90
27376;DHT22;14844;51.302;6.354;2023-04-24T04:32:09;9.40;99.90
27376;DHT22;14844;51.302;6.354;2023-04-24T04:34:35;9.30;99.90
27376;DHT22;14844;51.302;6.354;2023-04-24T04:37:03;9.30;99.90
27376;DHT22;14844;51.302;6.354;2023-04-24T04:39:28;9.30;99.90
27376;DHT22;14844;51.302;6.354;2023-04-24T04:41:54;9.20;99.90
27376;DHT22;14844;51.302;6.354;2023-04-24T04:44:20;9.10;99.90
27376;DHT22;14844;51.302;6.354;2023-04-24T04:46:45;9.10;99.90
27376;DHT22;14844;51.302;6.354;2023-04-24T04:49:11;9.00;99.90
27376;DHT22;14844;51.302;6.354;2023-04-24T04:51:36;9.00;99.90
27376;DHT22;14844;51.302;6.354;2023-04-24T04:54:02;9.00;99.90
27376;DHT22;14844;51.302;6.354;2023-04-24T04:56:27;8.90;99.90
27376;DHT22;14844;51.302;6.354;2023-04-24T04:58:53;8.90;99.90
27376;DHT22;14844;51.302;6.354;2023-04-24T05:01:19;8.80;99.90
27376;DHT22;14844;51.302;6.354;2023-04-24T05:03:44;8.80;99.90
27376;DHT22;14844;51.302;6.354;2023-04-24T05:06:10;8.80;99.90
27376;DHT22;14844;51.302;6.354;2023-04-24T05:08:35;8.90;99.90
27376;DHT22;14844;51.302;6.354;2023-04-24T05:11:01;8.90;99.90
27376;DHT22;14844;51.302;6.354;2023-04-24T05:13:26;8.90;99.90
27376;DHT22;14844;51.302;6.354;2023-04-24T05:15:52;8.90;99.90
27376;DHT22;14844;51.302;6.354;2023-04-24T05:18:17;9.00;99.90
27376;DHT22;14844;51.302;6.354;2023-04-24T05:20:43;9.00;99.90
27376;DHT22;14844;51.302;6.354;2023-04-24T05:23:09;9.00;99.90
27376;DHT22;14844;51.302;6.354;2023-04-24T05:25:35;9.10;99.90
27376;DHT22;14844;51.302;6.354;2023-04-24T05:28:01;9.10;99.90
27376;DHT22;14844;51.302;6.354;2023-04-24T05:30:27;9.10;99.90
27376;DHT22;14844;51.302;6.354;2023-04-24T05:32:52;9.10;99.90
27376;DHT22;14844;51.302;6.354;2023-04-24T05:35:17;9.10;99.90
27376;DHT22;14844;51.302;6.354;2023-04-24T05:37:44;9.10;99.90
27376;DHT22;14844;51.302;6.354;2023-04-24T05:40:09;9.10;99.90
27376;DHT22;14844;51.302;6.354;2023-04-24T05:42:35;9.00;99.90
27376;DHT22;14844;51.302;6.354;2023-04-24T05:45:01;9.10;99.90
27376;DHT22;14844;51.302;6.354;2023-04-24T05:47:26;9.10;99.90
27376;DHT22;14844;51.302;6.354;2023-04-24T05:49:52;9.00;99.90
27376;DHT22;14844;51.302;6.354;2023-04-24T05:52:18;8.90;99.90
27376;DHT22;14844;51.302;6.354;2023-04-24T05:54:43;8.90;99.90
27376;DHT22;14844;51.302;6.354;2023-04-24T05:57:09;8.90;99.90
27376;DHT22;14844;51.302;6.354;2023-04-24T05:59:36;8.80;99.90
27376;DHT22;14844;51.302;6.354;2023-04-24T06:02:02;8.80;99.90
27376;DHT22;14844;51.302;6.354;2023-04-24T06:04:27;8.70;99.90
27376;DHT22;14844;51.302;6.354;2023-04-24T06:06:52;8.60;99.90
27376;DHT22;14844;51.302;6.354;2023-04-24T06:09:24;8.60;99.90
27376;DHT22;14844;51.302;6.354;2023-04-24T06:11:49;8.60;99.90
27376;DHT22;14844;51.302;6.354;2023-04-24T06:14:18;8.50;99.90
27376;DHT22;14844;51.302;6.354;2023-04-24T06:16:43;8.60;99.90
27376;DHT22;14844;51.302;6.354;2023-04-24T06:19:09;8.50;99.90
27376;DHT22;14844;51.302;6.354;2023-04-24T06:21:34;8.50;99.90
27376;DHT22;14844;51.302;6.354;2023-04-24T06:24:00;8.50;99.90
27376;DHT22;14844;51.302;6.354;2023-04-24T06:26:25;8.50;99.90
27376;DHT22;14844;51.302;6.354;2023-04-24T06:28:52;8.60;99.90
27376;DHT22;14844;51.302;6.354;2023-04-24T06:31:19;8.70;99.90
27376;DHT22;14844;51.302;6.354;2023-04-24T06:33:45;8.70;99.90
27376;DHT22;14844;51.302;6.354;2023-04-24T06:36:10;8.60;99.90
27376;DHT22;14844;51.302;6.354;2023-04-24T06:38:36;8.50;99.90
27376;DHT22;14844;51.302;6.354;2023-04-24T06:41:01;8.40;99.90
27376;DHT22;14844;51.302;6.354;2023-04-24T06:43:27;8.40;99.90
27376;DHT22;14844;51.302;6.354;2023-04-24T06:45:52;8.30;99.90
27376;DHT22;14844;51.302;6.354;2023-04-24T06:48:18;8.20;99.90
27376;DHT22;14844;51.302;6.354;2023-04-24T06:50:43;8.10;99.90
27376;DHT22;14844;51.302;6.354;2023-04-24T06:53:08;8.00;99.90
27376;DHT22;14844;51.302;6.354;2023-04-24T06:55:36;7.90;99.90
27376;DHT22;14844;51.302;6.354;2023-04-24T06:58:01;7.90;99.90
27376;DHT22;14844;51.302;6.354;2023-04-24T07:00:27;7.80;99.90
27376;DHT22;14844;51.302;6.354;2023-04-24T07:02:52;7.70;99.90
27376;DHT22;14844;51.302;6.354;2023-04-24T07:05:18;7.70;99.90
27376;DHT22;14844;51.302;6.354;2023-04-24T07:07:46;7.60;99.90
27376;DHT22;14844;51.302;6.354;2023-04-24T07:10:11;7.60;99.90
27376;DHT22;14844;51.302;6.354;2023-04-24T07:12:37;7.50;99.90
27376;DHT22;14844;51.302;6.354;2023-04-24T07:15:02;7.50;99.90
27376;DHT22;14844;51.302;6.354;2023-04-24T07:17:28;7.40;99.90
27376;DHT22;14844;51.302;6.354;2023-04-24T07:19:54;7.40;99.90
27376;DHT22;14844;51.302;6.354;2023-04-24T07:22:19;7.30;99.90
27376;DHT22;14844;51.302;6.354;2023-04-24T07:24:44;7.40;99.90
27376;DHT22;14844;51.302;6.354;2023-04-24T07:27:10;7.40;99.90
27376;DHT22;14844;51.302;6.354;2023-04-24T07:29:35;7.40;99.90
27376;DHT22;14844;51.302;6.354;2023-04-24T07:32:01;7.40;99.90
27376;DHT22;14844;51.302;6.354;2023-04-24T07:34:27;7.50;99.90
27376;DHT22;14844;51.302;6.354;2023-04-24T07:36:53;7.40;99.90
27376;DHT22;14844;51.302;6.354;2023-04-24T07:39:18;7.50;99.90
27376;DHT22;14844;51.302;6.354;2023-04-24T07:41:44;7.40;99.90
27376;DHT22;14844;51.302;6.354;2023-04-24T07:44:09;7.40;99.90
27376;DHT22;14844;51.302;6.354;2023-04-24T07:46:35;7.50;99.90
27376;DHT22;14844;51.302;6.354;2023-04-24T07:49:00;7.50;99.90
27376;DHT22;14844;51.302;6.354;2023-04-24T07:51:26;7.60;99.90
27376;DHT22;14844;51.302;6.354;2023-04-24T07:53:55;7.70;99.90
27376;DHT22;14844;51.302;6.354;2023-04-24T07:56:21;7.70;99.90
27376;DHT22;14844;51.302;6.354;2023-04-24T07:58:46;7.70;99.90
27376;DHT22;14844;51.302;6.354;2023-04-24T08:01:12;7.80;99.90
27376;DHT22;14844;51.302;6.354;2023-04-24T08:03:37;7.90;99.90
27376;DHT22;14844;51.302;6.354;2023-04-24T08:06:03;7.90;99.90
27376;DHT22;14844;51.302;6.354;2023-04-24T08:08:28;7.90;99.90
27376;DHT22;14844;51.302;6.354;2023-04-24T08:10:54;7.80;99.90
27376;DHT22;14844;51.302;6.354;2023-04-24T08:13:20;7.80;99.90
27376;DHT22;14844;51.302;6.354;2023-04-24T08:15:45;7.80;99.90
27376;DHT22;14844;51.302;6.354;2023-04-24T08:18:11;7.80;99.90
27376;DHT22;14844;51.302;6.354;2023-04-24T08:20:37;7.80;99.90
27376;DHT22;14844;51.302;6.354;2023-04-24T08:23:03;7.80;99.90
27376;DHT22;14844;51.302;6.354;2023-04-24T08:25:28;7.90;99.90
27376;DHT22;14844;51.302;6.354;2023-04-24T08:27:54;8.00;99.90
27376;DHT22;14844;51.302;6.354;2023-04-24T08:30:20;8.00;99.90
27376;DHT22;14844;51.302;6.354;2023-04-24T08:32:45;7.90;99.90
27376;DHT22;14844;51.302;6.354;2023-04-24T08:35:11;8.00;99.90
27376;DHT22;14844;51.302;6.354;2023-04-24T08:37:36;8.00;99.90
27376;DHT22;14844;51.302;6.354;2023-04-24T08:40:06;7.90;99.90
27376;DHT22;14844;51.302;6.354;2023-04-24T08:42:33;7.70;99.90
27376;DHT22;14844;51.302;6.354;2023-04-24T08:44:59;7.80;99.90
27376;DHT22;14844;51.302;6.354;2023-04-24T08:47:25;7.90;99.90
27376;DHT22;14844;51.302;6.354;2023-04-24T08:49:51;8.00;99.90
27376;DHT22;14844;51.302;6.354;2023-04-24T08:52:18;8.00;99.90
27376;DHT22;14844;51.302;6.354;2023-04-24T08:54:44;8.10;99.90
27376;DHT22;14844;51.302;6.354;2023-04-24T08:57:11;8.10;99.90
27376;DHT22;14844;51.302;6.354;2023-04-24T08:59:38;8.10;99.90
27376;DHT22;14844;51.302;6.354;2023-04-24T09:02:04;8.00;99.90
27376;DHT22;14844;51.302;6.354;2023-04-24T09:04:30;8.10;99.90
27376;DHT22;14844;51.302;6.354;2023-04-24T09:06:57;7.90;99.90
27376;DHT22;14844;51.302;6.354;2023-04-24T09:09:23;8.00;99.90
27376;DHT22;14844;51.302;6.354;2023-04-24T09:11:49;7.90;99.90
27376;DHT22;14844;51.302;6.354;2023-04-24T09:14:15;8.00;99.90
27376;DHT22;14844;51.302;6.354;2023-04-24T09:16:40;8.10;99.90
27376;DHT22;14844;51.302;6.354;2023-04-24T09:19:06;8.10;99.90
27376;DHT22;14844;51.302;6.354;2023-04-24T09:21:32;8.20;99.90
27376;DHT22;14844;51.302;6.354;2023-04-24T09:23:59;8.30;99.90
27376;DHT22;14844;51.302;6.354;2023-04-24T09:26:25;8.40;99.90
27376;DHT22;14844;51.302;6.354;2023-04-24T09:28:50;8.40;99.90
27376;DHT22;14844;51.302;6.354;2023-04-24T09:31:17;8.40;99.90
27376;DHT22;14844;51.302;6.354;2023-04-24T09:36:39;8.50;99.90
27376;DHT22;14844;51.302;6.354;2023-04-24T09:39:06;8.50;99.90
27376;DHT22;14844;51.302;6.354;2023-04-24T09:41:44;8.70;99.90
27376;DHT22;14844;51.302;6.354;2023-04-24T09:44:11;8.70;99.90
27376;DHT22;14844;51.302;6.354;2023-04-24T09:46:37;8.60;99.90
27376;DHT22;14844;51.302;6.354;2023-04-24T09:49:09;8.50;99.90
27376;DHT22;14844;51.302;6.354;2023-04-24T09:51:36;8.60;99.90
27376;DHT22;14844;51.302;6.354;2023-04-24T09:54:02;8.60;99.90
27376;DHT22;14844;51.302;6.354;2023-04-24T09:56:29;8.70;99.90
27376;DHT22;14844;51.302;6.354;2023-04-24T09:59:03;8.70;99.90
27376;DHT22;14844;51.302;6.354;2023-04-24T10:01:30;8.80;99.90
27376;DHT22;14844;51.302;6.354;2023-04-24T10:03:55;8.90;99.90
27376;DHT22;14844;51.302;6.354;2023-04-24T10:06:21;9.00;99.90
27376;DHT22;14844;51.302;6.354;2023-04-24T10:08:46;9.00;99.90
27376;DHT22;14844;51.302;6.354;2023-04-24T10:11:13;8.80;99.90
27376;DHT22;14844;51.302;6.354;2023-04-24T10:13:39;8.70;99.90
27376;DHT22;14844;51.302;6.354;2023-04-24T10:16:05;8.60;99.90
27376;DHT22;14844;51.302;6.354;2023-04-24T10:18:31;8.50;99.90
27376;DHT22;14844;51.302;6.354;2023-04-24T10:20:57;8.50;99.90
27376;DHT22;14844;51.302;6.354;2023-04-24T10:23:24;8.50;99.90
27376;DHT22;14844;51.302;6.354;2023-04-24T10:25:50;8.50;99.90
27376;DHT22;14844;51.302;6.354;2023-04-24T10:28:16;8.50;99.90
27376;DHT22;14844;51.302;6.354;2023-04-24T10:30:43;8.60;99.90
27376;DHT22;14844;51.302;6.354;2023-04-24T10:33:08;8.80;99.90
27376;DHT22;14844;51.302;6.354;2023-04-24T10:35:34;8.90;99.90
27376;DHT22;14844;51.302;6.354;2023-04-24T10:38:02;9.20;99.90
27376;DHT22;14844;51.302;6.354;2023-04-24T10:40:32;9.60;99.90
27376;DHT22;14844;51.302;6.354;2023-04-24T10:42:58;9.70;99.90
27376;DHT22;14844;51.302;6.354;2023-04-24T10:45:24;9.40;99.90
27376;DHT22;14844;51.302;6.354;2023-04-24T10:47:56;9.10;99.90
27376;DHT22;14844;51.302;6.354;2023-04-24T10:50:21;8.90;99.90
27376;DHT22;14844;51.302;6.354;2023-04-24T10:52:47;8.70;99.90
27376;DHT22;14844;51.302;6.354;2023-04-24T10:55:13;8.60;99.90
27376;DHT22;14844;51.302;6.354;2023-04-24T10:58:04;8.50;99.90
27376;DHT22;14844;51.302;6.354;2023-04-24T11:00:28;8.40;99.90
27376;DHT22;14844;51.302;6.354;2023-04-24T11:02:54;8.50;99.90
27376;DHT22;14844;51.302;6.354;2023-04-24T11:05:21;8.70;99.90
27376;DHT22;14844;51.302;6.354;2023-04-24T11:10:31;9.10;99.90
27376;DHT22;14844;51.302;6.354;2023-04-24T11:12:56;9.60;99.90
27376;DHT22;14844;51.302;6.354;2023-04-24T11:15:21;9.80;99.90
27376;DHT22;14844;51.302;6.354;2023-04-24T11:17:47;9.80;99.90
27376;DHT22;14844;51.302;6.354;2023-04-24T11:20:17;10.00;99.90
27376;DHT22;14844;51.302;6.354;2023-04-24T11:22:43;9.90;99.90
27376;DHT22;14844;51.302;6.354;2023-04-24T11:25:08;9.70;99.90
27376;DHT22;14844;51.302;6.354;2023-04-24T11:27:41;9.40;99.90
27376;DHT22;14844;51.302;6.354;2023-04-24T11:30:07;9.20;99.90
27376;DHT22;14844;51.302;6.354;2023-04-24T11:35:00;9.30;99.90
27376;DHT22;14844;51.302;6.354;2023-04-24T11:37:27;9.30;99.90
27376;DHT22;14844;51.302;6.354;2023-04-24T11:39:54;9.50;99.90
27376;DHT22;14844;51.302;6.354;2023-04-24T11:42:20;9.70;99.90
27376;DHT22;14844;51.302;6.354;2023-04-24T11:44:45;9.80;99.90
27376;DHT22;14844;51.302;6.354;2023-04-24T11:47:12;10.10;99.90
27376;DHT22;14844;51.302;6.354;2023-04-24T11:49:38;10.00;99.90
27376;DHT22;14844;51.302;6.354;2023-04-24T11:52:04;10.00;99.90
27376;DHT22;14844;51.302;6.354;2023-04-24T11:54:30;10.10;99.90
27376;DHT22;14844;51.302;6.354;2023-04-24T11:56:56;10.30;99.90
27376;DHT22;14844;51.302;6.354;2023-04-24T11:59:21;10.40;99.90
27376;DHT22;14844;51.302;6.354;2023-04-24T12:01:47;10.40;99.90
27376;DHT22;14844;51.302;6.354;2023-04-24T12:04:14;10.60;99.90
27376;DHT22;14844;51.302;6.354;2023-04-24T12:06:40;10.90;99.90
27376;DHT22;14844;51.302;6.354;2023-04-24T12:09:05;11.00;99.90
27376;DHT22;14844;51.302;6.354;2023-04-24T12:11:31;11.10;99.90
27376;DHT22;14844;51.302;6.354;2023-04-24T12:13:57;11.20;99.90
27376;DHT22;14844;51.302;6.354;2023-04-24T12:16:23;11.30;99.90
27376;DHT22;14844;51.302;6.354;2023-04-24T12:18:51;11.20;99.90
27376;DHT22;14844;51.302;6.354;2023-04-24T12:21:17;11.40;99.90
27376;DHT22;14844;51.302;6.354;2023-04-24T12:23:43;11.20;99.90
27376;DHT22;14844;51.302;6.354;2023-04-24T12:26:09;11.30;99.90
27376;DHT22;14844;51.302;6.354;2023-04-24T12:28:35;11.40;99.90
27376;DHT22;14844;51.302;6.354;2023-04-24T12:31:01;11.40;99.90
27376;DHT22;14844;51.302;6.354;2023-04-24T12:33:26;11.40;99.90
27376;DHT22;14844;51.302;6.354;2023-04-24T12:35:52;11.20;99.90
27376;DHT22;14844;51.302;6.354;2023-04-24T12:38:25;11.10;99.90
27376;DHT22;14844;51.302;6.354;2023-04-24T12:41:13;11.30;99.90
27376;DHT22;14844;51.302;6.354;2023-04-24T12:43:37;11.40;99.90
27376;DHT22;14844;51.302;6.354;2023-04-24T12:46:03;11.70;99.90
27376;DHT22;14844;51.302;6.354;2023-04-24T12:48:29;11.60;99.90
27376;DHT22;14844;51.302;6.354;2023-04-24T12:50:54;11.60;99.90
27376;DHT22;14844;51.302;6.354;2023-04-24T12:53:21;11.50;99.90
27376;DHT22;14844;51.302;6.354;2023-04-24T12:55:47;11.60;99.90
27376;DHT22;14844;51.302;6.354;2023-04-24T12:58:20;11.50;99.90
27376;DHT22;14844;51.302;6.354;2023-04-24T13:00:46;11.40;99.90
27376;DHT22;14844;51.302;6.354;2023-04-24T13:03:12;11.50;99.90
27376;DHT22;14844;51.302;6.354;2023-04-24T13:05:38;11.80;99.90
27376;DHT22;14844;51.302;6.354;2023-04-24T13:08:03;11.80;99.90
27376;DHT22;14844;51.302;6.354;2023-04-24T13:10:29;11.60;99.90
27376;DHT22;14844;51.302;6.354;2023-04-24T13:12:55;11.60;99.90
27376;DHT22;14844;51.302;6.354;2023-04-24T13:15:20;11.60;99.90
27376;DHT22;14844;51.302;6.354;2023-04-24T13:17:46;11.60;99.90
27376;DHT22;14844;51.302;6.354;2023-04-24T13:20:11;11.70;99.90
27376;DHT22;14844;51.302;6.354;2023-04-24T13:22:37;11.80;99.90
27376;DHT22;14844;51.302;6.354;2023-04-24T13:25:02;11.90;99.90
27376;DHT22;14844;51.302;6.354;2023-04-24T13:27:28;11.80;99.90
27376;DHT22;14844;51.302;6.354;2023-04-24T13:29:53;11.80;99.90
27376;DHT22;14844;51.302;6.354;2023-04-24T13:32:19;11.90;99.90
27376;DHT22;14844;51.302;6.354;2023-04-24T13:34:44;11.90;99.90
27376;DHT22;14844;51.302;6.354;2023-04-24T13:37:10;12.00;99.90
27376;DHT22;14844;51.302;6.354;2023-04-24T13:39:35;12.10;99.90
27376;DHT22;14844;51.302;6.354;2023-04-24T13:42:01;11.90;99.90
27376;DHT22;14844;51.302;6.354;2023-04-24T13:44:26;12.10;99.90
27376;DHT22;14844;51.302;6.354;2023-04-24T13:46:53;12.20;99.90
27376;DHT22;14844;51.302;6.354;2023-04-24T13:49:20;12.00;99.90
27376;DHT22;14844;51.302;6.354;2023-04-24T13:51:46;11.90;99.90
27376;DHT22;14844;51.302;6.354;2023-04-24T13:54:12;11.80;99.90
27376;DHT22;14844;51.302;6.354;2023-04-24T13:56:38;11.70;99.90
27376;DHT22;14844;51.302;6.354;2023-04-24T13:59:04;12.00;99.90
27376;DHT22;14844;51.302;6.354;2023-04-24T14:01:30;12.10;99.90
27376;DHT22;14844;51.302;6.354;2023-04-24T14:03:56;12.10;99.90
27376;DHT22;14844;51.302;6.354;2023-04-24T14:06:22;12.00;99.90
27376;DHT22;14844;51.302;6.354;2023-04-24T14:08:48;12.10;99.90
27376;DHT22;14844;51.302;6.354;2023-04-24T14:11:14;12.10;99.90
27376;DHT22;14844;51.302;6.354;2023-04-24T14:13:40;12.20;99.90
27376;DHT22;14844;51.302;6.354;2023-04-24T14:16:06;12.10;99.90
27376;DHT22;14844;51.302;6.354;2023-04-24T14:18:31;12.00;99.90
27376;DHT22;14844;51.302;6.354;2023-04-24T14:20:57;11.70;99.90
27376;DHT22;14844;51.302;6.354;2023-04-24T14:23:22;11.60;99.90
27376;DHT22;14844;51.302;6.354;2023-04-24T14:25:48;11.50;99.90
27376;DHT22;14844;51.302;6.354;2023-04-24T14:28:17;11.60;99.90
27376;DHT22;14844;51.302;6.354;2023-04-24T14:30:43;11.60;99.90
27376;DHT22;14844;51.302;6.354;2023-04-24T14:33:08;11.70;99.90
27376;DHT22;14844;51.302;6.354;2023-04-24T14:35:34;11.70;99.90
27376;DHT22;14844;51.302;6.354;2023-04-24T14:38:00;11.70;99.90
27376;DHT22;14844;51.302;6.354;2023-04-24T14:40:25;12.10;99.90
27376;DHT22;14844;51.302;6.354;2023-04-24T14:42:51;12.30;99.90
27376;DHT22;14844;51.302;6.354;2023-04-24T14:45:17;12.40;99.90
27376;DHT22;14844;51.302;6.354;2023-04-24T14:47:42;12.30;99.90
27376;DHT22;14844;51.302;6.354;2023-04-24T14:50:08;12.30;99.90
27376;DHT22;14844;51.302;6.354;2023-04-24T14:52:33;12.30;99.90
27376;DHT22;14844;51.302;6.354;2023-04-24T14:54:59;12.20;99.90
27376;DHT22;14844;51.302;6.354;2023-04-24T14:57:25;12.30;99.90
27376;DHT22;14844;51.302;6.354;2023-04-24T14:59:50;12.60;99.90
27376;DHT22;14844;51.302;6.354;2023-04-24T15:02:16;13.20;99.90
27376;DHT22;14844;51.302;6.354;2023-04-24T15:04:41;13.10;99.90
27376;DHT22;14844;51.302;6.354;2023-04-24T15:07:07;12.70;99.90
27376;DHT22;14844;51.302;6.354;2023-04-24T15:09:32;13.20;99.90
27376;DHT22;14844;51.302;6.354;2023-04-24T15:11:58;13.60;99.90
27376;DHT22;14844;51.302;6.354;2023-04-24T15:14:23;13.20;99.90
27376;DHT22;14844;51.302;6.354;2023-04-24T15:16:49;12.70;99.90
27376;DHT22;14844;51.302;6.354;2023-04-24T15:19:14;12.30;99.90
27376;DHT22;14844;51.302;6.354;2023-04-24T15:21:39;12.20;99.90
27376;DHT22;14844;51.302;6.354;2023-04-24T15:24:06;12.30;99.90
27376;DHT22;14844;51.302;6.354;2023-04-24T15:26:32;12.20;99.90
27376;DHT22;14844;51.302;6.354;2023-04-24T15:28:57;12.10;99.90
27376;DHT22;14844;51.302;6.354;2023-04-24T15:31:23;11.90;99.90
27376;DHT22;14844;51.302;6.354;2023-04-24T15:33:51;11.80;99.90
27376;DHT22;14844;51.302;6.354;2023-04-24T15:36:17;11.70;99.90
27376;DHT22;14844;51.302;6.354;2023-04-24T15:38:43;11.70;99.90
27376;DHT22;14844;51.302;6.354;2023-04-24T15:41:08;11.60;99.90